createdAt,value
2018-07-08T00:02:00.859Z,4.30
2018-07-08T00:04:30.889Z,4.33
2018-07-08T00:07:00.902Z,4.50
2018-07-08T00:09:30.905Z,4.07
2018-07-08T00:12:01.030Z,3.93
2018-07-08T00:14:30.888Z,3.67
2018-07-08T00:17:00.877Z,4.00
2018-07-08T00:19:30.863Z,3.30
2018-07-08T00:22:00.932Z,3.93
2018-07-08T00:24:30.930Z,3.80
2018-07-08T00:27:00.858Z,3.77
2018-07-08T00:29:30.985Z,3.37
2018-07-08T00:32:00.885Z,3.80
2018-07-08T00:34:31.193Z,3.90
2018-07-08T00:37:01.009Z,4.40
2018-07-08T00:39:30.903Z,3.37
2018-07-08T00:42:00.898Z,3.73
2018-07-08T00:44:30.892Z,3.43
2018-07-08T00:47:00.888Z,3.97
2018-07-08T00:49:30.898Z,3.87
2018-07-08T00:52:00.810Z,3.97
2018-07-08T00:54:30.881Z,4.20
2018-07-08T00:57:00.839Z,3.60
2018-07-08T00:59:30.881Z,4.03
2018-07-08T01:02:01.086Z,3.70
2018-07-08T01:04:30.906Z,3.30
2018-07-08T01:07:00.898Z,3.70
2018-07-08T01:09:30.985Z,3.30
2018-07-08T01:12:00.825Z,3.63
2018-07-08T01:14:30.864Z,3.70
2018-07-08T01:17:00.841Z,3.53
2018-07-08T01:19:31.485Z,3.63
2018-07-08T01:22:01.279Z,3.80
2018-07-08T01:24:31.046Z,3.77
2018-07-08T01:27:00.889Z,3.70
2018-07-08T01:29:30.833Z,3.70
2018-07-08T01:32:00.645Z,3.77
2018-07-08T01:34:30.675Z,3.90
2018-07-08T01:37:00.770Z,4.15
2018-07-08T01:39:30.819Z,3.93
2018-07-08T01:42:00.869Z,3.90
2018-07-08T01:44:30.870Z,4.27
2018-07-08T01:47:00.905Z,3.73
2018-07-08T01:49:30.827Z,3.27
2018-07-08T01:52:00.881Z,4.00
2018-07-08T01:54:30.793Z,3.93
2018-07-08T01:57:01.106Z,4.10
2018-07-08T01:59:31.351Z,3.40
2018-07-08T02:02:01.164Z,3.37
2018-07-08T02:04:30.937Z,3.33
2018-07-08T02:07:00.949Z,3.70
2018-07-08T02:09:31.161Z,3.50
2018-07-08T02:12:00.957Z,3.50
2018-07-08T02:14:31.073Z,3.77
2018-07-08T02:17:01.181Z,3.70
2018-07-08T02:19:31.343Z,3.77
2018-07-08T02:22:01.103Z,3.50
2018-07-08T02:24:30.934Z,3.70
2018-07-08T02:27:01.121Z,3.97
2018-07-08T02:29:31.066Z,3.90
2018-07-08T02:32:01.467Z,3.97
2018-07-08T02:34:31.590Z,3.57
2018-07-08T02:37:01.898Z,3.60
2018-07-08T02:39:32.096Z,3.50
2018-07-08T02:42:02.522Z,3.60
2018-07-08T02:44:32.605Z,3.53
2018-07-08T02:47:02.672Z,3.55
2018-07-08T02:49:32.933Z,4.23
2018-07-08T02:52:02.921Z,3.83
2018-07-08T02:54:32.849Z,3.23
2018-07-08T02:57:02.781Z,3.37
2018-07-08T02:59:33.211Z,3.67
2018-07-08T03:02:03.091Z,3.43
2018-07-08T03:04:33.016Z,3.80
2018-07-08T03:07:02.826Z,3.95
2018-07-08T03:09:32.749Z,3.70
2018-07-08T03:12:03.089Z,3.67
2018-07-08T03:14:32.909Z,4.23
2018-07-08T03:17:02.745Z,3.40
2018-07-08T03:19:33.073Z,3.70
2018-07-08T03:22:02.896Z,3.53
2018-07-08T03:24:32.729Z,3.27
2018-07-08T03:27:02.515Z,3.70
2018-07-08T03:29:32.277Z,4.00
2018-07-08T03:32:02.030Z,3.25
2018-07-08T03:34:31.913Z,3.57
2018-07-08T03:37:01.738Z,3.30
2018-07-08T03:39:32.061Z,3.47
2018-07-08T03:42:02.258Z,3.46
2018-07-08T03:44:32.238Z,3.30
2018-07-08T03:47:01.988Z,3.27
2018-07-08T03:49:32.467Z,3.37
2018-07-08T03:52:02.207Z,3.70
2018-07-08T03:54:33.945Z,3.42
2018-07-08T03:57:04.801Z,3.40
2018-07-08T03:59:35.333Z,3.00
2018-07-08T04:02:06.610Z,3.38
2018-07-08T04:04:37.309Z,2.95
2018-07-08T04:07:08.582Z,3.14
2018-07-08T04:09:39.350Z,3.33
2018-07-08T04:12:10.583Z,3.58
2018-07-08T04:14:40.391Z,3.07
2018-07-08T04:17:11.589Z,3.00
2018-07-08T04:19:42.377Z,3.33
2018-07-08T04:22:13.583Z,2.86
2018-07-08T04:24:44.960Z,3.30
2018-07-08T04:27:15.697Z,3.37
2018-07-08T04:29:46.357Z,3.42
2018-07-08T04:32:17.607Z,3.04
2018-07-08T04:34:48.357Z,3.00
2018-07-08T04:37:19.601Z,3.32
2018-07-08T04:39:50.303Z,3.60
2018-07-08T04:42:21.577Z,3.42
2018-07-08T04:44:52.469Z,3.77
2018-07-08T04:47:22.894Z,3.46
2018-07-08T04:49:53.398Z,3.60
2018-07-08T04:52:24.564Z,2.90
2018-07-08T04:54:55.342Z,3.33
2018-07-08T04:57:26.573Z,3.96
2018-07-08T04:59:57.436Z,2.98
2018-07-08T05:02:28.282Z,3.42
2018-07-08T05:04:59.667Z,3.22
2018-07-08T05:07:30.293Z,3.27
2018-07-08T05:10:01.627Z,3.20
2018-07-08T05:12:32.253Z,3.15
2018-07-08T05:15:03.737Z,3.50
2018-07-08T05:17:34.282Z,3.65
2018-07-08T05:20:05.710Z,3.04
2018-07-08T05:22:36.345Z,3.20
2018-07-08T05:25:07.625Z,3.30
2018-07-08T05:27:38.326Z,3.50
2018-07-08T05:30:09.885Z,3.26
2018-07-08T05:32:40.331Z,3.75
2018-07-08T05:35:11.666Z,2.68
2018-07-08T05:37:42.301Z,3.15
2018-07-08T05:40:13.693Z,3.68
2018-07-08T05:42:44.291Z,3.35
2018-07-08T05:45:15.644Z,3.00
2018-07-08T05:47:46.281Z,3.25
2018-07-08T05:50:17.680Z,3.44
2018-07-08T05:52:48.324Z,3.70
2018-07-08T05:55:19.629Z,3.66
2018-07-08T05:57:50.260Z,3.00
2018-07-08T06:00:21.610Z,2.98
2018-07-08T06:02:52.286Z,3.17
2018-07-08T06:05:23.655Z,2.84
2018-07-08T06:07:54.503Z,3.00
2018-07-08T06:10:25.361Z,2.90
2018-07-08T06:12:56.601Z,3.38
2018-07-08T06:15:27.384Z,3.42
2018-07-08T06:17:58.586Z,3.44
2018-07-08T06:20:29.338Z,2.70
2018-07-08T06:23:00.624Z,2.90
2018-07-08T06:25:41.800Z,2.85
2018-07-08T06:28:11.593Z,2.90
2018-07-08T06:30:41.405Z,2.72
2018-07-08T06:33:11.243Z,2.63
2018-07-08T06:35:41.038Z,2.53
2018-07-08T06:38:10.922Z,3.20
2018-07-08T06:40:40.753Z,2.90
2018-07-08T06:43:11.133Z,3.35
2018-07-08T06:45:41.505Z,2.70
2018-07-08T06:48:11.324Z,3.30
2018-07-08T06:50:41.134Z,2.83
2018-07-08T06:53:10.950Z,3.13
2018-07-08T06:55:41.477Z,2.70
2018-07-08T06:58:12.285Z,2.40
2018-07-08T07:00:43.667Z,3.02
2018-07-08T07:03:14.385Z,3.00
2018-07-08T07:05:44.289Z,2.35
2018-07-08T07:08:15.550Z,2.80
2018-07-08T07:10:46.390Z,2.55
2018-07-08T07:13:17.980Z,2.50
2018-07-08T07:15:48.457Z,2.67
2018-07-08T07:18:18.619Z,2.70
2018-07-08T07:20:49.324Z,2.40
2018-07-08T07:23:20.586Z,2.70
2018-07-08T07:25:51.382Z,2.70
2018-07-08T07:28:22.726Z,2.78
2018-07-08T07:30:53.361Z,2.77
2018-07-08T07:33:24.603Z,4.00
2018-07-08T07:35:55.349Z,2.45
2018-07-08T08:00:57.230Z,2.53
2018-07-08T08:03:27.174Z,2.40
2018-07-08T08:05:56.924Z,2.93
2018-07-08T08:08:26.752Z,2.73
2018-07-08T08:10:56.870Z,2.60
2018-07-08T08:13:26.909Z,3.00
2018-07-08T08:15:56.950Z,2.97
2018-07-08T08:18:26.971Z,2.07
2018-07-08T08:20:57.043Z,2.00
2018-07-08T08:23:27.007Z,2.10
2018-07-08T08:25:56.957Z,2.50
2018-07-08T08:28:26.969Z,2.93
2018-07-08T08:30:56.981Z,2.40
2018-07-08T08:33:26.762Z,2.10
2018-07-08T08:35:56.859Z,2.20
2018-07-08T08:38:26.883Z,2.17
2018-07-08T08:40:56.970Z,2.03
2018-07-08T08:43:27.049Z,2.07
2018-07-08T08:45:56.998Z,2.13
2018-07-08T08:48:27.229Z,2.00
2018-07-08T08:50:57.045Z,1.90
2018-07-08T08:53:26.901Z,1.73
2018-07-08T08:56:06.473Z,2.27
2018-07-08T08:58:36.208Z,2.20
2018-07-08T09:01:06.035Z,2.10
2018-07-08T09:03:35.957Z,2.20
2018-07-08T09:06:05.916Z,2.37
2018-07-08T09:08:35.969Z,2.30
2018-07-08T09:11:06.029Z,2.20
2018-07-08T09:13:36.037Z,2.20
2018-07-08T09:16:05.886Z,2.00
2018-07-08T09:18:35.930Z,2.47
2018-07-08T09:21:05.914Z,2.43
2018-07-08T09:23:36.008Z,2.30
2018-07-08T09:26:05.974Z,2.30
2018-07-08T09:28:35.942Z,2.00
2018-07-08T09:31:06.030Z,2.10
2018-07-08T09:33:35.885Z,1.87
2018-07-08T09:36:06.210Z,1.87
2018-07-08T09:38:36.143Z,2.17
2018-07-08T09:41:06.205Z,2.47
2018-07-08T09:43:36.033Z,1.93
2018-07-08T09:46:05.934Z,2.30
2018-07-08T09:48:35.980Z,2.60
2018-07-08T09:51:05.893Z,2.53
2018-07-08T09:53:35.953Z,2.00
2018-07-08T09:56:06.098Z,1.90
2018-07-08T09:58:35.962Z,1.90
2018-07-08T10:01:06.031Z,1.90
2018-07-08T10:03:35.917Z,1.77
2018-07-08T10:06:06.436Z,1.67
2018-07-08T10:08:36.376Z,1.97
2018-07-08T10:11:06.296Z,2.07
2018-07-08T10:13:36.114Z,1.90
2018-07-08T10:16:06.029Z,2.00
2018-07-08T10:18:36.050Z,1.87
2018-07-08T10:21:06.224Z,2.33
2018-07-08T10:23:35.997Z,2.27
2018-07-08T10:26:06.875Z,1.70
2018-07-08T10:28:36.934Z,2.00
2018-07-08T10:31:14.170Z,1.97
2018-07-08T10:33:55.922Z,1.87
2018-07-08T10:36:26.019Z,2.00
2018-07-08T10:38:55.918Z,2.00
2018-07-08T10:41:25.993Z,2.37
2018-07-08T10:43:55.925Z,1.90
2018-07-08T10:46:26.571Z,1.80
2018-07-08T10:48:56.391Z,1.80
2018-07-08T10:51:26.346Z,2.53
2018-07-08T10:53:56.199Z,1.77
2018-07-08T10:56:26.054Z,2.00
2018-07-08T10:58:55.864Z,2.60
2018-07-08T11:01:25.990Z,1.73
2018-07-08T11:03:56.094Z,2.00
2018-07-08T11:06:26.110Z,1.90
2018-07-08T11:08:55.942Z,2.40
2018-07-08T11:11:25.886Z,2.07
2018-07-08T11:13:55.971Z,2.17
2018-07-08T11:16:25.904Z,2.47
2018-07-08T11:18:55.954Z,2.07
2018-07-08T11:21:25.909Z,2.30
2018-07-08T11:23:56.294Z,2.17
2018-07-08T11:26:26.165Z,1.87
2018-07-08T11:28:55.942Z,2.20
2018-07-08T11:31:26.039Z,1.90
2018-07-08T11:33:55.854Z,1.73
2018-07-08T11:36:25.946Z,1.87
2018-07-08T11:38:56.003Z,2.40
2018-07-08T11:41:25.962Z,2.30
2018-07-08T11:43:55.927Z,2.23
2018-07-08T11:46:25.973Z,2.10
2018-07-08T11:48:56.006Z,2.40
2018-07-08T11:51:25.947Z,2.37
2018-07-08T11:53:55.968Z,2.27
2018-07-08T11:56:25.965Z,1.93
2018-07-08T11:58:55.881Z,1.87
2018-07-08T12:01:26.262Z,2.20
2018-07-08T12:03:56.107Z,2.40
2018-07-08T12:06:25.940Z,2.00
2018-07-08T12:08:55.945Z,2.07
2018-07-08T12:11:25.961Z,1.93
2018-07-08T12:13:56.135Z,2.27
2018-07-08T12:16:25.997Z,2.27
2018-07-08T12:18:55.873Z,2.07
2018-07-08T12:21:26.213Z,2.07
2018-07-08T12:23:56.034Z,1.83
2018-07-08T12:26:25.932Z,2.40
2018-07-08T12:28:55.982Z,2.20
2018-07-08T12:31:26.035Z,1.87
2018-07-08T12:33:55.870Z,1.80
2018-07-08T12:36:25.919Z,2.10
2018-07-08T12:38:55.931Z,1.77
2018-07-08T12:41:25.929Z,2.30
2018-07-08T12:43:55.945Z,1.90
2018-07-08T12:46:25.948Z,2.60
2018-07-08T12:48:55.918Z,2.10
2018-07-08T12:51:25.931Z,2.20
2018-07-08T12:53:55.997Z,1.93
2018-07-08T12:56:25.921Z,2.03
2018-07-08T12:58:55.987Z,2.13
2018-07-08T13:01:25.961Z,2.00
2018-07-08T13:03:56.270Z,2.10
2018-07-08T13:06:26.199Z,2.10
2018-07-08T13:08:56.172Z,2.10
2018-07-08T13:11:25.945Z,2.00
2018-07-08T13:13:55.862Z,1.90
2018-07-08T13:16:25.818Z,2.07
2018-07-08T13:18:55.850Z,2.27
2018-07-08T13:21:25.805Z,2.20
2018-07-08T13:23:55.881Z,2.13
2018-07-08T13:26:25.845Z,2.17
2018-07-08T13:28:55.830Z,1.70
2018-07-08T13:31:25.813Z,1.90
2018-07-08T13:33:55.597Z,2.30
2018-07-08T13:36:25.758Z,1.90
2018-07-08T13:38:57.846Z,2.00
2018-07-08T13:41:27.816Z,1.90
2018-07-08T13:43:57.905Z,1.73
2018-07-08T13:46:27.781Z,1.90
2018-07-08T13:48:57.865Z,2.00
2018-07-08T13:51:28.061Z,1.87
2018-07-08T13:53:57.954Z,1.90
2018-07-08T13:56:27.915Z,1.90
2018-07-08T13:58:57.920Z,2.20
2018-07-08T14:01:28.044Z,2.00
2018-07-08T14:03:57.943Z,2.53
2018-07-08T14:06:27.927Z,2.10
2018-07-08T14:08:58.369Z,2.20
2018-07-08T14:11:28.229Z,2.30
2018-07-08T14:13:58.249Z,2.13
2018-07-08T14:16:28.143Z,2.43
2018-07-08T14:18:57.973Z,2.10
2018-07-08T14:21:27.931Z,2.27
2018-07-08T14:23:58.202Z,2.00
2018-07-08T14:26:28.397Z,2.50
2018-07-08T14:28:58.315Z,2.23
2018-07-08T14:31:28.137Z,2.37
2018-07-08T14:33:58.036Z,2.53
2018-07-08T14:36:27.857Z,2.70
2018-07-08T14:38:58.084Z,2.60
2018-07-08T14:41:27.921Z,2.50
2018-07-08T14:43:57.901Z,2.50
2018-07-08T14:46:28.163Z,2.67
2018-07-08T14:48:58.173Z,2.50
2018-07-08T14:51:27.981Z,2.80
2018-07-08T14:53:57.857Z,2.40
2018-07-08T14:56:27.902Z,2.20
2018-07-08T14:58:57.987Z,2.60
2018-07-08T15:01:27.930Z,2.10
2018-07-08T15:03:58.241Z,2.63
2018-07-08T15:06:28.438Z,2.52
2018-07-08T15:09:02.407Z,2.30
2018-07-08T15:11:32.399Z,2.53
2018-07-08T15:14:02.348Z,2.63
2018-07-08T15:16:32.255Z,2.17
2018-07-08T15:19:02.668Z,2.70
2018-07-08T15:21:32.974Z,2.35
2018-07-08T15:24:02.837Z,2.40
2018-07-08T15:26:32.959Z,2.37
2018-07-08T15:29:03.471Z,2.85
2018-07-08T15:31:33.419Z,2.53
2018-07-08T15:34:03.283Z,2.37
2018-07-08T15:36:33.158Z,2.20
2018-07-08T15:39:03.264Z,2.70
2018-07-08T15:41:33.275Z,2.90
2018-07-08T15:44:03.266Z,2.93
2018-07-08T15:46:33.157Z,2.87
2018-07-08T15:49:03.077Z,2.63
2018-07-08T15:51:33.063Z,2.70
2018-07-08T15:54:03.093Z,2.53
2018-07-08T15:56:33.152Z,2.60
2018-07-08T15:59:03.460Z,2.45
2018-07-08T16:01:33.449Z,2.37
2018-07-08T16:04:03.782Z,2.30
2018-07-08T16:06:34.334Z,2.45
2018-07-08T16:09:05.493Z,3.00
2018-07-08T16:11:35.425Z,2.40
2018-07-08T16:14:06.513Z,2.40
2018-07-08T16:16:37.487Z,2.10
2018-07-08T16:19:08.330Z,2.25
2018-07-08T16:21:39.702Z,2.40
2018-07-08T16:24:10.353Z,2.65
2018-07-08T16:26:41.440Z,2.37
2018-07-08T16:29:12.356Z,2.42
2018-07-08T16:31:44.078Z,2.30
2018-07-08T16:34:14.590Z,2.62
2018-07-08T16:36:45.427Z,2.50
2018-07-08T16:39:16.420Z,2.42
2018-07-08T16:41:47.541Z,2.52
2018-07-08T16:44:18.390Z,2.42
2018-07-08T16:46:48.591Z,2.30
2018-07-08T16:49:19.392Z,2.33
2018-07-08T16:51:50.385Z,2.47
2018-07-08T16:54:21.704Z,2.55
2018-07-08T16:56:53.169Z,2.60
2018-07-08T16:59:24.013Z,2.60
2018-07-08T17:01:54.011Z,2.43
2018-07-08T17:04:24.766Z,2.37
2018-07-08T17:06:55.679Z,2.20
2018-07-08T17:09:26.653Z,2.58
2018-07-08T17:11:57.698Z,2.20
2018-07-08T17:14:28.397Z,2.50
2018-07-08T17:16:59.506Z,2.30
2018-07-08T17:19:31.049Z,2.66
2018-07-08T17:22:01.745Z,2.25
2018-07-08T17:24:32.459Z,2.42
2018-07-08T17:27:03.704Z,2.20
2018-07-08T17:29:35.953Z,2.20
2018-07-08T17:32:06.179Z,2.10
2018-07-08T17:34:36.898Z,2.00
2018-07-08T17:37:07.731Z,2.67
2018-07-08T17:39:39.694Z,2.37
2018-07-08T17:42:11.129Z,2.53
2018-07-08T17:44:42.223Z,2.10
2018-07-08T17:47:12.480Z,2.30
2018-07-08T17:49:42.586Z,2.10
2018-07-08T17:52:12.536Z,2.50
2018-07-08T17:54:43.487Z,2.27
2018-07-08T17:57:14.426Z,2.40
2018-07-08T17:59:45.794Z,2.10
2018-07-08T18:02:16.852Z,2.12
2018-07-08T18:04:47.421Z,2.50
2018-07-08T18:07:18.592Z,2.15
2018-07-08T18:09:49.612Z,2.70
2018-07-08T18:12:20.890Z,2.27
2018-07-08T18:14:51.565Z,2.12
2018-07-08T18:17:22.721Z,2.20
2018-07-08T18:19:53.439Z,3.45
2018-07-08T18:22:25.098Z,2.62
2018-07-08T18:24:55.834Z,2.40
2018-07-08T18:27:27.115Z,2.87
2018-07-08T18:29:58.402Z,3.62
2018-07-08T18:32:28.424Z,3.05
2018-07-08T18:35:00.813Z,3.52
2018-07-08T18:37:30.865Z,3.30
2018-07-08T18:40:00.847Z,3.07
2018-07-08T18:42:31.561Z,3.20
2018-07-08T18:45:02.445Z,3.33
2018-07-08T18:47:34.562Z,3.30
2018-07-08T18:50:04.738Z,3.37
2018-07-08T18:52:35.669Z,3.00
2018-07-08T18:55:06.682Z,3.42
2018-07-08T18:57:38.103Z,3.05
2018-07-08T19:00:09.238Z,2.70
2018-07-08T19:02:39.341Z,2.73
2018-07-08T19:05:09.782Z,2.43
2018-07-08T19:07:40.577Z,2.85
2018-07-08T19:10:11.998Z,2.45
2018-07-08T19:12:44.619Z,2.83
2018-07-08T19:15:15.681Z,2.25
2018-07-08T19:17:46.809Z,2.53
2018-07-08T19:20:17.281Z,2.77
2018-07-08T19:22:48.532Z,3.30
2018-07-08T19:25:18.799Z,3.30
2018-07-08T19:27:48.845Z,2.20
2018-07-08T19:30:19.513Z,2.40
2018-07-08T19:32:54.597Z,2.25
2018-07-08T19:35:25.185Z,2.98
2018-07-08T19:37:56.514Z,4.24
2018-07-08T19:40:26.454Z,5.43
2018-07-08T19:42:57.608Z,5.07
2018-07-08T19:45:29.072Z,4.30
2018-07-08T19:47:59.989Z,3.74
2018-07-08T19:50:30.487Z,3.70
2018-07-08T19:53:00.504Z,3.27
2018-07-08T19:55:31.358Z,6.43
2018-07-08T19:58:01.776Z,6.03
2018-07-08T20:00:33.505Z,8.33
2018-07-08T20:03:04.466Z,8.57
2018-07-08T20:05:34.601Z,5.20
2018-07-08T20:08:06.437Z,6.10
2018-07-08T20:10:36.779Z,5.53
2018-07-08T20:13:07.298Z,11.30
2018-07-08T20:15:37.927Z,8.03
2018-07-08T20:18:08.484Z,6.13
2018-07-08T20:20:39.600Z,5.90
2018-07-08T20:23:10.613Z,5.83
2018-07-08T20:25:50.835Z,10.53
2018-07-08T20:28:23.016Z,12.07
2018-07-08T20:30:53.695Z,7.23
2018-07-08T20:33:25.951Z,7.28
2018-07-08T20:35:56.090Z,6.57
2018-07-08T20:38:26.258Z,6.00
2018-07-08T20:40:56.581Z,6.50
2018-07-08T20:43:26.959Z,5.37
2018-07-08T20:45:57.190Z,9.83
2018-07-08T20:48:27.361Z,7.20
2018-07-08T20:50:57.508Z,4.57
2018-07-08T20:53:27.432Z,5.30
2018-07-08T20:55:57.507Z,6.33
2018-07-08T20:58:27.525Z,9.13
2018-07-08T21:00:57.587Z,6.60
2018-07-08T21:03:28.465Z,5.78
2018-07-08T21:05:58.781Z,7.50
2018-07-08T21:08:29.483Z,9.60
2018-07-08T21:10:59.560Z,9.23
2018-07-08T21:13:29.893Z,8.08
2018-07-08T21:16:00.717Z,7.53
2018-07-08T21:18:31.327Z,8.90
2018-07-08T21:21:02.114Z,9.10
2018-07-08T21:23:32.935Z,10.23
2018-07-08T21:26:04.166Z,10.93
2018-07-08T21:28:35.052Z,11.83
2018-07-08T21:31:05.882Z,16.35
2018-07-08T21:33:37.049Z,9.80
2018-07-08T21:36:09.175Z,12.78
2018-07-08T21:38:39.254Z,11.23
2018-07-08T21:41:09.721Z,8.60
2018-07-08T21:43:40.508Z,3.62
2018-07-08T21:46:11.326Z,3.25
2018-07-08T21:48:42.882Z,3.02
2018-07-08T21:51:13.977Z,2.90
2018-07-08T21:53:44.565Z,2.90
2018-07-08T21:56:16.249Z,3.45
2018-07-08T21:58:46.736Z,3.36
2018-07-08T22:01:18.834Z,3.47
2018-07-08T22:03:49.729Z,2.97
2018-07-08T22:06:20.154Z,3.13
2018-07-08T22:08:50.657Z,3.15
2018-07-08T22:11:21.329Z,3.72
2018-07-08T22:13:52.781Z,3.14
2018-07-08T22:16:23.282Z,3.80
2018-07-08T22:18:54.649Z,3.10
2018-07-08T22:21:25.386Z,3.62
2018-07-08T22:23:56.818Z,3.30
2018-07-08T22:26:27.340Z,3.30
2018-07-08T22:28:59.105Z,2.70
2018-07-08T22:31:29.069Z,2.90
2018-07-08T22:33:59.625Z,3.02
2018-07-08T22:36:30.393Z,3.62
2018-07-08T22:39:02.089Z,3.40
2018-07-08T22:41:31.874Z,3.37
2018-07-08T22:44:02.545Z,4.20
2018-07-08T22:46:33.405Z,3.70
2018-07-08T22:49:04.782Z,3.75
2018-07-08T22:51:35.344Z,3.50
2018-07-08T22:54:07.114Z,3.38
2018-07-08T22:56:37.630Z,3.72
2018-07-08T22:59:08.335Z,3.55
2018-07-08T23:01:48.837Z,3.50
2018-07-08T23:04:19.188Z,3.62
2018-07-08T23:06:49.030Z,4.03
2018-07-08T23:09:19.221Z,3.63
2018-07-08T23:11:49.021Z,3.33
2018-07-08T23:14:18.877Z,3.40
2018-07-08T23:16:49.406Z,3.30
2018-07-08T23:19:19.218Z,3.70
2018-07-08T23:21:49.014Z,3.60
2018-07-08T23:24:18.905Z,3.40
2018-07-08T23:26:49.364Z,3.54
2018-07-08T23:29:19.201Z,4.03
2018-07-08T23:31:49.240Z,4.08
2018-07-08T23:34:19.170Z,3.87
2018-07-08T23:36:49.773Z,3.75
2018-07-08T23:39:20.415Z,3.92
2018-07-08T23:41:51.343Z,3.83
2018-07-08T23:44:22.542Z,4.32
2018-07-08T23:46:53.687Z,4.12
2018-07-08T23:49:24.278Z,3.90
2018-07-08T23:51:55.654Z,4.04
2018-07-08T23:54:26.341Z,4.20
2018-07-08T23:56:57.665Z,4.54
2018-07-08T23:59:28.301Z,4.03
